»·PEaware :: N333ZA KIZA-KTOA

N333ZA :: KIZA-KTOA

FLIGHT INFORMATION

Flight Status: Arrived
Operator: Privately registered:
United States
More flights under this callsign
Pilot: Judd H. (29974)
Aircraft: CESSNA 210 CENTURION
(C210)
More flights by this aircraft type
Origin: KIZA Santa Ynez
United States
Destination: KTOA Zamperini
United States
More flights between these airports :: More routes between these airports
Route: +RZS V186 ADAMM V394 SLI
File this flight plan on PilotEdge
Remarks:
Altitude:
(Current/Filed)
7,000ft
Speed:
(Current/Filed)
160kts
Departed: 28-Oct-20 07:18 PM
Arrived: 28-Oct-20 08:20 PM
Distance/Time
Traveled:
98nm/1:02
Distance/Time
To Go:
Arrived

Flight Plot

Page will automatically refresh every two minutes.


Map Options




Map Legend


Flown Route
Filed Route
Departure Airport
Arrival Airport
Navaid (VOR, NDB)
Fix

Horizontal Profiles

Position Reports

Time Latitude Longitude Heading Altitude Ground
Speed
28-Oct-20 19:05 34.607550 -120.072951 7 674ft 0kts
28-Oct-20 19:06 34.607552 -120.072951 7 674ft 0kts
28-Oct-20 19:07 34.607554 -120.072951 7 674ft 0kts
28-Oct-20 19:08 34.607556 -120.072950 7 674ft 0kts
28-Oct-20 19:09 34.607558 -120.072950 7 674ft 0kts
28-Oct-20 19:10 34.607560 -120.072950 7 674ft 0kts
28-Oct-20 19:11 34.607562 -120.072949 7 674ft 0kts
28-Oct-20 19:12 34.607564 -120.072949 7 674ft 0kts
28-Oct-20 19:13 34.606760 -120.071492 99 674ft 6kts
28-Oct-20 19:14 34.606706 -120.070875 165 674ft 0kts
28-Oct-20 19:15 34.606706 -120.070875 165 674ft 0kts
28-Oct-20 19:16 34.606467 -120.072355 276 674ft 37kts
28-Oct-20 19:17 34.609719 -120.103976 287 1640ft 110kts
28-Oct-20 19:18 34.628560 -120.095977 103 3085ft 104kts
28-Oct-20 19:19 34.611937 -120.060345 118 4035ft 139kts
28-Oct-20 19:20 34.594143 -120.014416 112 4685ft 156kts
28-Oct-20 19:21 34.577687 -119.965261 111 5386ft 157kts
28-Oct-20 19:22 34.561704 -119.915814 111 6088ft 157kts
28-Oct-20 19:23 34.544588 -119.867041 113 6778ft 158kts
28-Oct-20 19:24 34.525761 -119.815374 113 6911ft 175kts
28-Oct-20 19:25 34.504752 -119.761755 123 6891ft 174kts
28-Oct-20 19:26 34.477140 -119.711204 122 6874ft 172kts
28-Oct-20 19:27 34.450783 -119.662572 123 6865ft 173kts
28-Oct-20 19:28 34.424255 -119.613768 123 6860ft 173kts
28-Oct-20 19:29 34.397767 -119.565084 123 6862ft 173kts
28-Oct-20 19:30 34.371123 -119.516181 123 6863ft 173kts
28-Oct-20 19:31 34.344582 -119.467532 123 6855ft 173kts
28-Oct-20 19:32 34.318463 -119.418547 113 6895ft 173kts
28-Oct-20 19:33 34.320812 -119.360663 84 6898ft 174kts
28-Oct-20 19:34 34.325384 -119.302492 84 6898ft 174kts
28-Oct-20 19:35 34.329774 -119.244173 84 6898ft 174kts
28-Oct-20 19:36 34.334194 -119.185656 84 6898ft 174kts
28-Oct-20 19:37 34.338557 -119.127434 84 6898ft 174kts
28-Oct-20 19:38 34.342907 -119.068960 84 6898ft 174kts
28-Oct-20 19:39 34.347207 -119.010789 84 6898ft 174kts
28-Oct-20 19:40 34.351584 -118.951687 84 6922ft 188kts
28-Oct-20 19:41 34.355962 -118.891174 85 6897ft 175kts
28-Oct-20 19:42 34.341472 -118.836045 113 6898ft 174kts
28-Oct-20 19:43 34.322889 -118.781923 112 6898ft 174kts
28-Oct-20 19:44 34.304443 -118.727826 112 6898ft 174kts
28-Oct-20 19:45 34.285922 -118.673643 112 6898ft 174kts
28-Oct-20 19:46 34.267374 -118.619478 112 6898ft 174kts
28-Oct-20 19:47 34.248844 -118.565469 112 6898ft 174kts
28-Oct-20 19:48 34.230261 -118.511388 112 6898ft 174kts
28-Oct-20 19:49 34.212679 -118.456794 109 6898ft 174kts
28-Oct-20 19:50 34.196294 -118.401866 110 6898ft 174kts
28-Oct-20 19:51 34.179892 -118.347882 110 6898ft 174kts
28-Oct-20 19:52 34.163166 -118.292893 110 6898ft 174kts
28-Oct-20 19:53 34.146580 -118.238457 110 6898ft 174kts
28-Oct-20 19:54 34.133129 -118.194390 110 6898ft 174kts
28-Oct-20 19:55 34.116336 -118.139464 110 6893ft 174kts
28-Oct-20 19:56 34.098588 -118.081508 110 6891ft 178kts
28-Oct-20 19:57 34.081603 -118.026182 110 6881ft 175kts
28-Oct-20 19:58 34.064846 -117.971676 110 6879ft 174kts
28-Oct-20 19:59 34.047641 -117.915796 110 6339ft 176kts
28-Oct-20 20:01 34.030828 -117.861367 110 5637ft 171kts
28-Oct-20 20:02 33.999206 -117.826060 184 4966ft 167kts
28-Oct-20 20:03 33.957617 -117.845704 201 4894ft 159kts
28-Oct-20 20:04 33.916091 -117.865722 201 4936ft 162kts
28-Oct-20 20:05 33.873758 -117.886186 201 4935ft 165kts
28-Oct-20 20:06 33.830903 -117.906889 202 4935ft 165kts
28-Oct-20 20:07 33.809626 -117.952980 253 4936ft 165kts
28-Oct-20 20:08 33.796041 -118.005867 252 4935ft 165kts
28-Oct-20 20:09 33.782282 -118.054928 236 4913ft 141kts
28-Oct-20 20:10 33.750683 -118.084218 216 4241ft 144kts
28-Oct-20 20:11 33.719125 -118.112641 216 3417ft 135kts
28-Oct-20 20:12 33.689881 -118.139013 217 2599ft 124kts
28-Oct-20 20:13 33.695470 -118.174077 312 2222ft 123kts
28-Oct-20 20:14 33.715294 -118.207123 306 2103ft 123kts
28-Oct-20 20:14 33.733363 -118.233182 305 1966ft 123kts
28-Oct-20 20:16 33.758045 -118.270729 307 1781ft 114kts
28-Oct-20 20:16 33.772188 -118.291756 308 1139ft 82kts
28-Oct-20 20:18 33.789594 -118.317803 307 549ft 86kts
28-Oct-20 20:18 33.800617 -118.334522 309 129ft 70kts
28-Oct-20 20:20 33.805990 -118.344961 229 106ft 12kts
28-Oct-20 20:20 33.804848 -118.346424 31 106ft 1kts

Navigation Log

Ident Type
Flight plan parsing failed, navigation log unavailable